Rachel, Nevada Weather observations

Data are for observation ending at time listed.
 Day   Time    Ave.   Ave.  Ave.  Vector   Max.   Stn.    Total    Solar   Ave.  
  of    of     Air    Rel.  Wind   Wind    Wind   Baro.  Precip.   Rad.    Soil  
Year   Day     Temp.  Hum.  Speed  Dir.    Gust   Pres.                    Temp. 
2014   (PST)    F      %     mph   deg.    mph     mb.     in.     W/m2     F   
------------------------------------------------------------------------------
 263   16:30   82.6    27    5.9   269     14.5   852.8    0.00      53    77.8
 263   16:40   79.0    29   12.5   284     18.5   852.9    0.00      53    77.6
 263   16:50   76.8    32   11.1   283     16.6   852.9    0.00      55    77.3
 263   17:00   75.9    34   10.8   272     17.6   852.7    0.00      47    76.9
 263   17:10   75.2    33   11.8   274     18.6   852.4    0.00      39    76.6
 263   17:20   74.5    32   12.4   273     20.0   852.5    0.00      37    76.4
 263   17:30   74.0    33   13.2   270     21.7   852.3    0.00      24    76.2
 263   17:40   73.3    35   13.6   270     21.3   852.3    0.00      10    75.9
 263   17:50   72.4    38   12.1   268     18.3   852.2    0.00       3    75.6
 263   18:00   71.6    39   11.9   264     18.5   852.0    0.00       1    75.3
 263   18:10   71.3    38   10.8   263     15.8   852.0    0.00       0    74.9
 263   18:20   70.9    39    8.9   263     14.4   852.1    0.00       0    74.8
 263   18:30   70.3    41    5.9   225     10.1   852.4    0.00       0    74.6
 263   18:40   70.7    39    7.7   181     12.0   852.7    0.00       0    74.4
 263   18:50   71.2    38    4.3   197      8.6   852.9    0.00       0    74.2
 263   19:00   71.3    38    5.5   186     12.1   853.6    0.00       0    74.2
 263   19:10   71.0    40    3.2   246     10.2   853.8    0.00       0    74.0
 263   19:20   70.7    42    4.2   241      8.6   854.2    0.00       0    74.0
 263   19:30   69.5    51    2.0    43      5.5   854.3    0.01       0    73.3
 263   19:40   67.5    58    5.0    86      7.0   854.4    0.00       0    72.8
 263   19:50   69.1    50    1.5   190      5.7   854.6    0.00       0    72.6
 263   20:00   67.2    64    6.6    40     10.3   854.4    0.01       0    72.3
 263   20:10   65.4    73    7.3    11     11.5   854.1    0.00       0    71.7
 263   20:20   64.1    77   10.6     6     15.3   854.0    0.00       0    71.4
 263   20:30   63.3    79   13.4     2     18.2   853.7    0.00       0    70.8
 263   20:40   62.1    85   13.5    13     18.9   853.9    0.00       0    70.1
 263   20:50   61.7    86   13.1    25     19.0   853.9    0.00       0    69.6
 263   21:00   61.3    87   10.4    38     16.5   854.0    0.00       0    69.4
 263   21:10   61.5    86   10.6    51     17.0   854.2    0.00       0    69.3
 263   21:20   62.1    84   12.9    63     17.8   854.3    0.00       0    69.2
 263   21:30   62.3    83    9.1    65     13.8   854.4    0.00       0    69.0
 263   21:40   62.1    84    9.7    67     12.6   854.3    0.04       0    68.8
 263   21:50   61.8    85    8.7    67     11.5   854.0    0.01       0    68.3
 263   22:00   62.1    83    2.9    55      8.7   854.3    0.00       0    68.1
 263   22:10   62.0    86    5.7   275     10.7   854.6    0.00       0    68.2
 263   22:20   61.6    88    8.0   270     11.7   854.9    0.00       0    68.1
 263   22:30   61.7    85    5.3   263      8.2   854.8    0.00       0    68.3
 263   22:40   61.6    85    2.7   281      6.6   854.7    0.00       0    68.1
 263   22:50   61.6    86    4.9     1      7.5   854.4    0.00       0    68.2
 263   23:00   61.3    86    1.8    13      5.8   854.7    0.00       0    67.9
 263   23:10   61.2    86    4.2   265      7.2   855.0    0.00       0    67.9
 263   23:20   60.8    88    4.1   268      7.6   854.8    0.00       0    67.7
 263   23:30   60.4    89    3.2   270      5.8   854.7    0.00       0    67.8
 263   23:40   60.2    90    1.4   265      3.8   854.5    0.00       0    67.8
 263   23:50   60.2    90    0.9   257      2.9   854.3    0.00       0    67.7
 264    0:00   60.3    90    3.8   221      5.8   854.4    0.00       0    67.7
 264    0:10   60.1    89    4.7   228      6.3   854.4    0.00       0    67.6
 264    0:20   60.1    89    5.2   234      7.4   854.5    0.00       0    67.4
 264    0:30   60.2    89    5.1   244      6.8   854.4    0.00       0    67.4
 264    0:40   60.5    88    5.6   246      7.5   854.4    0.00       0    67.3
 264    0:50   60.5    89    2.4   238      5.8   854.2    0.00       0    67.2
 264    1:00   60.6    90    2.2   218      4.7   854.3    0.00       0    67.1
 264    1:10   60.4    90    5.5   241      7.7   854.4    0.01       0    67.1
 264    1:20   60.5    89    2.6   256      6.3   854.2    0.00       0    67.0
 264    1:30   60.6    88    2.2   355      5.3   853.8    0.00       0    67.0
 264    1:40   60.2    90    5.1   296      8.3   853.7    0.00       0    66.8
 264    1:50   59.5    92    7.5   352      9.6   853.4    0.00       0    66.6
 264    2:00   59.9    88    7.2    41     10.9   853.5    0.00       0    66.3
 264    2:10   60.4    84    4.6    38      8.8   853.7    0.00       0    66.2
 264    2:20   60.5    83    4.1    65     10.3   853.8    0.00       0    66.0
 264    2:30   60.0    85    3.8    25      7.2   853.9    0.00       0    66.0
 264    2:40   59.3    86    5.2    38      7.3   854.0    0.00       0    65.9
 264    2:50   59.3    85    6.6    50     11.8   854.0    0.00       0    65.6
 264    3:00   59.6    84   13.2    76     18.3   853.6    0.00       0    65.4
 264    3:10   59.6    83   15.0    70     18.7   853.5    0.00       0    65.2
 264    3:20   59.4    84   12.7    71     17.4   853.5    0.00       0    65.1
 264    3:30   59.0    85   10.5    74     14.0   853.5    0.00       0    64.9
 264    3:40   58.5    86    9.2    56     11.2   853.2    0.00       0    64.8
 264    3:50   58.0    88    7.7   344     11.7   853.3    0.00       0    64.6
 264    4:00   57.5    89    6.1   307      8.7   853.5    0.00       0    64.5
 264    4:10   57.6    88    5.0    10      7.1   853.6    0.00       0    64.4
 264    4:20   58.9    84    4.8   334      6.3   853.6    0.00       0    64.3
 264    4:30   58.7    84    4.8   360      9.2   853.5    0.00       0    64.3
 264    4:40   59.2    81    6.8    37     13.2   853.5    0.00       0    64.3
 264    4:50   59.3    80    5.0    20      7.9   853.6    0.00       0    64.1
 264    5:00   58.6    82    5.8   353      8.1   853.6    0.00       0    64.0
 264    5:10   58.1    84    4.7   350      8.8   853.7    0.00       0    63.9
 264    5:20   58.7    81    6.0    26     10.1   853.6    0.00       0    63.7
 264    5:30   58.2    83    3.1    15      5.3   853.8    0.00       1    63.6
 264    5:40   57.7    84    4.2    21      8.4   853.9    0.00       3    63.7
 264    5:50   56.9    88    4.1    56      5.7   854.0    0.00       4    63.5
 264    6:00   56.1    91    4.4    52      6.4   853.9    0.00      12    63.4
 264    6:10   56.6    91    4.0    31      6.7   854.0    0.00      36    63.4
 264    6:20   57.9    87    4.3   334      6.7   854.1    0.00      34    63.5
 264    6:30   58.5    85    6.7    11     12.2   854.1    0.00      52    63.3
 264    6:40   59.6    82    5.0   323      7.2   854.4    0.00      86    63.7
 264    6:50   58.7    87    5.8   318      8.0   854.6    0.00      33    63.9
 264    7:00   58.2    89    4.8   287      8.0   854.9    0.00      33    63.8
 264    7:10   59.4    88    3.6   292      8.5   854.8    0.02     200    64.1
 264    7:20   60.2    86    4.1   310      6.6   854.8    0.00     256    64.5
 264    7:30   61.8    82    4.6   295      8.7   854.9    0.00     308    65.2
 264    7:40   62.2    80    5.9   310     10.7   855.0    0.00     335    66.1
 264    7:50   62.5    76    5.4   326      8.8   855.1    0.00     315    66.7
 264    8:00   63.4    74    3.3   309      7.7   855.3    0.00     321    67.2
 264    8:10   64.8    70    1.8    14      5.2   855.6    0.00     344    67.9
 264    8:20   66.7    66    1.5    38      4.2   855.7    0.00     360    68.5
 264    8:30   65.8    69    1.2   301      3.2   855.8    0.00     276    69.1
 264    8:40   65.8    69    1.4    94      4.6   856.0    0.00     127    69.3
 264    8:50   64.7    70    1.3    78      5.0   856.0    0.00     267    68.8
 264    9:00   65.6    69    2.6   164      8.3   856.1    0.00     184    68.9
 264    9:10   64.5    72    2.7    89      5.0   856.0    0.00     342    68.6
 264    9:20   67.4    65    1.4    82      4.1   855.9    0.00     504    68.9
 264    9:30   67.3    67    3.5   101      7.9   855.9    0.00     501    69.3
 264    9:40   67.6    67    3.7    21      7.2   855.8    0.00     538    69.4
 264    9:50   66.9    69    4.3    47      7.0   855.9    0.00     406    69.2
 264   10:00   68.1    66    3.2    58      7.1   856.2    0.00     550    69.2
 264   10:10   68.6    66    5.4    14      9.1   856.0    0.00     557    69.3
 264   10:20   69.4    63    3.7    33      8.3   856.0    0.00     562    69.4
 264   10:30   69.5    64    4.1    30      6.9   856.0    0.00     565    69.5
 264   10:40   69.9    63    3.6    11      7.2   856.0    0.00     581    69.6
 264   10:50   69.3    63    3.2   298      5.3   856.2    0.00     428    69.7
 264   11:00   70.0    62    3.5    15      6.1   856.2    0.00     341    69.7
 264   11:10   71.6    58    1.6    24      3.7   856.2    0.00     619    69.8
 264   11:20   72.3    57    1.0   160      3.7   856.1    0.00     424    70.1
 264   11:30   72.1    59    4.3    72      6.9   855.9    0.00     323    70.3
 264   11:40   72.1    57    2.0    52      4.5   855.8    0.00     520    70.3
 264   11:50   75.1    52    2.5    32      5.9   855.5    0.00     562    70.5
 264   12:00   74.3    49    3.8   123     10.9   855.4    0.00     170    70.6
 264   12:10   72.9    49    9.4   153     12.9   855.3    0.00     221    70.7
 264   12:20   72.9    46   11.2   159     15.4   855.0    0.00     168    70.7
 264   12:30   72.8    48   10.2   167     15.1   854.6    0.00     119    70.7
 264   12:40   72.8    49   10.3   175     13.4   854.4    0.00     101    70.7
 264   12:50   72.5    52   13.9   172     35.3   854.4    0.01     104    70.6
 264   13:00   66.5    65   21.5   143     32.8   854.1    0.00     121    70.2
 264   13:10   65.2    62   17.4   153     28.6   853.8    0.00      49    69.5
 264   13:20   66.6    54   12.5   146     17.2   853.6    0.00      55    69.1
 264   13:30   65.2    69    8.5   113     12.9   853.8    0.02      22    68.6
 264   13:40   62.9    72   10.7    51     17.7   853.8    0.05      17    67.8
 264   13:50   61.1    76   12.0    44     16.0   853.3    0.01      30    66.8
 264   14:00   61.7    70   12.9    80     23.5   853.1    0.00      31    66.5
 264   14:10   62.1    74   10.4    88     14.9   853.4    0.00      70    66.5
 264   14:20   61.8    82   12.6    88     17.5   853.3    0.00     428    66.5
 264   14:30   63.6    76   14.4    96     18.3   853.2    0.00     522    66.8
 264   14:40   65.0    71   14.4    92     18.4   853.2    0.00     421    67.1
 264   14:50   66.1    67   12.0    85     17.0   853.4    0.00     237    67.3
 264   15:00   68.1    62    9.0    88     12.1   853.5    0.00     286    67.4
 264   15:10   68.1    60    9.0    84     11.4   853.5    0.00     206    67.6
 264   15:20   68.3    60    6.5    86      9.3   853.6    0.00      91    67.6
 264   15:30   69.0    55    4.7    74      7.1   853.7    0.00     195    67.6
 264   15:40   70.6    51    4.7    18      8.2   854.0    0.00     304    67.8
 264   15:50   70.7    52    4.4    20      8.7   854.0    0.00     261    67.9
 264   16:00   70.6    52    4.2    60      8.7   854.3    0.00     231    68.1
 264   16:10   70.8    52    3.6    69      5.8   854.4    0.00     206    68.1
 264   16:20   71.2    52    2.4     8      5.0   854.5    0.00     181    68.2

Return to St. George, Utah graphs page.


Western Regional Climate Center,wrcc@dri.edu